createdAt,value
2018-07-23T00:00:01.399Z,55.90
2018-07-23T00:02:30.382Z,55.60
2018-07-23T00:04:59.432Z,55.60
2018-07-23T00:07:28.380Z,55.50
2018-07-23T00:09:57.344Z,55.40
2018-07-23T00:12:26.569Z,55.80
2018-07-23T00:14:55.525Z,55.70
2018-07-23T00:17:25.631Z,55.70
2018-07-23T00:19:54.728Z,55.30
2018-07-23T00:22:23.727Z,55.50
2018-07-23T00:24:52.742Z,55.60
2018-07-23T00:27:21.906Z,55.60
2018-07-23T00:29:50.884Z,55.60
2018-07-23T00:32:19.863Z,55.80
2018-07-23T00:37:17.496Z,56.30
2018-07-23T00:39:46.447Z,56.30
2018-07-23T00:42:15.399Z,56.20
2018-07-23T00:44:44.395Z,56.70
2018-07-23T00:47:13.345Z,56.70
2018-07-23T00:49:42.457Z,56.50
2018-07-23T00:52:11.397Z,57.30
2018-07-23T00:54:40.363Z,56.60
2018-07-23T00:57:09.461Z,56.00
2018-07-23T00:59:38.477Z,57.70
2018-07-23T01:02:07.481Z,56.80
2018-07-23T01:04:36.479Z,56.80
2018-07-23T01:07:05.675Z,57.50
2018-07-23T01:09:34.693Z,57.80
2018-07-23T01:12:03.750Z,59.50
2018-07-23T01:14:32.725Z,59.40
2018-07-23T01:17:01.708Z,57.30
2018-07-23T01:19:30.763Z,57.90
2018-07-23T01:21:59.783Z,58.40
2018-07-23T01:24:28.813Z,58.30
2018-07-23T01:26:57.799Z,59.10
2018-07-23T01:29:26.802Z,59.70
2018-07-23T01:31:55.789Z,58.10
2018-07-23T01:34:24.796Z,58.20
2018-07-23T01:36:53.811Z,58.40
2018-07-23T01:39:22.821Z,59.00
2018-07-23T01:41:51.837Z,58.50
2018-07-23T01:44:20.805Z,58.40
2018-07-23T01:46:49.765Z,59.00
2018-07-23T01:49:18.777Z,58.40
2018-07-23T01:51:47.723Z,59.10
2018-07-23T01:54:16.878Z,58.80
2018-07-23T01:56:45.835Z,59.50
2018-07-23T01:59:14.815Z,59.40
2018-07-23T02:01:43.795Z,59.70
2018-07-23T02:04:12.768Z,58.70
2018-07-23T02:06:41.784Z,58.10
2018-07-23T02:09:12.474Z,59.00
2018-07-23T02:11:41.884Z,59.50
2018-07-23T02:14:10.919Z,59.20
2018-07-23T02:16:39.936Z,59.60
2018-07-23T02:19:08.984Z,59.50
2018-07-23T02:21:38.017Z,59.20
2018-07-23T02:24:07.077Z,59.40
2018-07-23T02:26:36.043Z,59.80
2018-07-23T02:29:05.112Z,59.50
2018-07-23T02:34:02.757Z,59.70
2018-07-23T02:36:31.766Z,60.20
2018-07-23T02:39:00.800Z,59.60
2018-07-23T02:43:58.398Z,59.80
2018-07-23T02:46:27.450Z,59.60
2018-07-23T02:48:56.475Z,62.20
2018-07-23T02:51:25.516Z,60.30
2018-07-23T02:53:54.557Z,60.10
2018-07-23T02:56:24.161Z,61.40
2018-07-23T02:58:53.138Z,61.60
2018-07-23T03:03:50.802Z,60.30
2018-07-23T03:06:19.749Z,61.00
2018-07-23T03:08:48.722Z,60.40
2018-07-23T03:11:17.782Z,59.10
2018-07-23T03:13:46.802Z,59.60
2018-07-23T03:16:15.785Z,61.50
2018-07-23T03:18:44.804Z,60.20
2018-07-23T03:21:13.928Z,60.20
2018-07-23T03:23:42.915Z,60.10
2018-07-23T03:26:11.926Z,60.60
2018-07-23T03:28:41.086Z,60.70
2018-07-23T03:31:10.160Z,61.00
2018-07-23T03:33:39.182Z,61.00
2018-07-23T03:36:08.198Z,60.80
2018-07-23T03:38:37.224Z,60.40
2018-07-23T03:41:06.292Z,61.20
2018-07-23T03:43:35.294Z,60.10
2018-07-23T03:46:04.951Z,61.50
2018-07-23T03:48:33.965Z,61.20
2018-07-23T03:51:03.026Z,61.10
2018-07-23T03:53:32.072Z,61.20
2018-07-23T03:56:01.134Z,61.20
2018-07-23T03:58:30.124Z,60.60
2018-07-23T04:00:59.120Z,61.30
2018-07-23T04:03:28.176Z,61.10
2018-07-23T04:05:57.158Z,61.00
2018-07-23T04:08:26.184Z,60.80
2018-07-23T04:10:55.269Z,60.60
2018-07-23T04:13:24.223Z,60.30
2018-07-23T04:15:53.238Z,61.10
2018-07-23T04:18:22.232Z,61.50
2018-07-23T04:20:51.246Z,62.30
2018-07-23T04:23:20.304Z,61.30
2018-07-23T04:25:49.280Z,60.90
2018-07-23T04:28:18.292Z,61.10
2018-07-23T04:30:47.352Z,61.80
2018-07-23T04:33:16.403Z,61.10
2018-07-23T04:35:45.410Z,61.30
2018-07-23T04:38:14.395Z,61.40
2018-07-23T04:40:43.402Z,61.60
2018-07-23T04:43:12.409Z,62.10
2018-07-23T04:45:41.381Z,60.80
2018-07-23T04:48:10.402Z,61.80
2018-07-23T04:50:39.665Z,62.20
2018-07-23T04:53:08.645Z,62.50
2018-07-23T04:55:37.659Z,62.00
2018-07-23T04:58:06.818Z,61.40
2018-07-23T05:00:35.881Z,63.70
2018-07-23T05:03:04.921Z,61.40
2018-07-23T05:05:33.985Z,62.50
2018-07-23T05:08:02.998Z,62.40
2018-07-23T05:10:31.991Z,62.10
2018-07-23T05:13:01.151Z,62.60
2018-07-23T05:15:30.246Z,62.40
2018-07-23T05:17:59.229Z,62.40
2018-07-23T05:20:28.205Z,63.00
2018-07-23T05:22:57.310Z,63.00
2018-07-23T05:27:55.353Z,63.70
2018-07-23T05:30:24.657Z,63.90
2018-07-23T05:32:53.781Z,63.50
2018-07-23T05:35:22.882Z,63.30
2018-07-23T05:37:51.881Z,63.30
2018-07-23T05:40:21.121Z,64.50
2018-07-23T05:42:50.136Z,63.80
2018-07-23T05:45:19.163Z,63.10
2018-07-23T05:47:48.182Z,63.60
2018-07-23T05:50:17.198Z,63.80
2018-07-23T05:52:46.218Z,63.10
2018-07-23T05:55:15.350Z,63.00
2018-07-23T05:57:44.328Z,62.80
2018-07-23T06:00:13.462Z,63.00
2018-07-23T06:02:42.760Z,62.90
2018-07-23T06:05:11.756Z,62.80
2018-07-23T06:07:40.796Z,62.80
2018-07-23T06:10:09.864Z,63.00
2018-07-23T06:12:39.091Z,62.80
2018-07-23T06:15:08.628Z,62.60
2018-07-23T06:17:37.631Z,62.70
2018-07-23T06:20:07.650Z,62.60
2018-07-23T06:22:36.635Z,62.70
2018-07-23T06:25:06.218Z,62.30
2018-07-23T06:27:35.244Z,62.50
2018-07-23T06:30:06.426Z,62.30
2018-07-23T06:32:35.460Z,62.10
2018-07-23T06:35:04.468Z,61.80
2018-07-23T06:37:33.905Z,62.00
2018-07-23T06:40:03.023Z,62.00
2018-07-23T06:42:32.048Z,61.70
2018-07-23T06:45:01.060Z,61.40
2018-07-23T06:47:30.080Z,61.00
2018-07-23T06:49:59.070Z,61.10
2018-07-23T06:52:28.156Z,61.00
2018-07-23T06:54:57.241Z,60.40
2018-07-23T06:57:26.287Z,60.20
2018-07-23T06:59:55.270Z,59.50
2018-07-23T07:02:24.306Z,59.50
2018-07-23T07:04:53.684Z,59.60
2018-07-23T07:07:22.705Z,59.60
2018-07-23T07:09:51.785Z,59.80
2018-07-23T07:12:20.874Z,59.50
2018-07-23T07:14:50.016Z,58.80
2018-07-23T07:17:18.981Z,58.70
2018-07-23T07:19:47.974Z,58.40
2018-07-23T07:22:17.001Z,58.30
2018-07-23T07:24:46.038Z,58.30
2018-07-23T07:27:15.130Z,58.30
2018-07-23T07:29:44.129Z,58.10
2018-07-23T07:32:13.237Z,58.00
2018-07-23T07:34:42.261Z,58.00
2018-07-23T07:37:11.249Z,58.00
2018-07-23T07:39:40.257Z,58.00
2018-07-23T07:42:09.217Z,57.90
2018-07-23T07:44:38.269Z,57.90
2018-07-23T07:47:07.235Z,57.80
2018-07-23T07:49:36.241Z,57.40
2018-07-23T07:52:05.209Z,57.10
2018-07-23T07:54:34.318Z,57.60
2018-07-23T07:57:03.318Z,57.30
2018-07-23T07:59:32.267Z,57.00
2018-07-23T08:04:30.223Z,55.70
2018-07-23T08:06:59.399Z,56.20
2018-07-23T08:09:28.368Z,56.60
2018-07-23T08:14:25.957Z,54.50
2018-07-23T08:16:55.010Z,55.30
2018-07-23T08:19:24.147Z,55.20
2018-07-23T08:21:53.477Z,54.90
2018-07-23T08:24:22.526Z,55.00
2018-07-23T08:26:51.524Z,54.70
2018-07-23T08:29:20.463Z,55.00
2018-07-23T08:31:49.642Z,55.20
2018-07-23T08:34:18.597Z,55.30
2018-07-23T08:36:47.585Z,55.00
2018-07-23T08:39:16.617Z,55.20
2018-07-23T08:41:45.605Z,55.40
2018-07-23T08:44:14.681Z,55.60
2018-07-23T08:46:43.721Z,55.60
2018-07-23T08:49:12.785Z,54.30
2018-07-23T08:51:41.743Z,55.10
2018-07-23T08:54:10.749Z,55.20
2018-07-23T08:56:39.737Z,55.00
2018-07-23T08:59:08.773Z,54.70
2018-07-23T09:01:37.764Z,53.70
2018-07-23T09:04:07.041Z,54.40
2018-07-23T09:06:36.085Z,54.70
2018-07-23T09:09:07.391Z,53.10
2018-07-23T09:11:36.453Z,54.60
2018-07-23T09:14:05.941Z,53.90
2018-07-23T09:16:35.090Z,53.20
2018-07-23T09:19:04.287Z,54.30
2018-07-23T09:21:33.369Z,54.00
2018-07-23T09:24:02.470Z,54.30
2018-07-23T09:26:31.441Z,54.30
2018-07-23T09:29:00.417Z,53.40
2018-07-23T09:31:29.421Z,53.00
2018-07-23T09:36:27.103Z,53.90
2018-07-23T09:38:56.140Z,53.80
2018-07-23T09:41:25.197Z,52.90
2018-07-23T09:46:22.852Z,53.90
2018-07-23T09:48:51.864Z,52.20
2018-07-23T09:51:20.915Z,52.30
2018-07-23T09:53:49.999Z,52.70
2018-07-23T09:56:18.975Z,51.80
2018-07-23T09:58:47.948Z,51.30
2018-07-23T10:01:18.713Z,51.20
2018-07-23T10:03:48.214Z,51.50
2018-07-23T10:06:17.910Z,52.60
2018-07-23T10:08:46.910Z,51.90
2018-07-23T10:11:15.913Z,51.50
2018-07-23T10:13:44.904Z,51.60
2018-07-23T10:16:13.880Z,52.20
2018-07-23T10:18:42.826Z,50.60
2018-07-23T10:21:11.802Z,51.60
2018-07-23T10:23:40.786Z,51.00
2018-07-23T10:26:09.814Z,50.90
2018-07-23T10:28:38.789Z,50.00
2018-07-23T10:31:08.014Z,49.10
2018-07-23T10:33:37.006Z,48.90
2018-07-23T10:36:06.486Z,49.00
2018-07-23T10:38:35.459Z,50.20
2018-07-23T10:41:04.449Z,48.70
2018-07-23T10:43:33.542Z,48.40
2018-07-23T10:46:03.456Z,48.80
2018-07-23T10:48:32.580Z,48.50
2018-07-23T10:51:01.729Z,48.30
2018-07-23T10:53:30.634Z,49.40
2018-07-23T10:55:59.718Z,49.70
2018-07-23T10:58:28.685Z,49.50
2018-07-23T11:00:57.790Z,49.50
2018-07-23T11:03:26.744Z,48.50
2018-07-23T11:05:55.802Z,48.30
2018-07-23T11:08:24.860Z,49.10
2018-07-23T11:10:53.921Z,49.80
2018-07-23T11:13:23.099Z,49.00
2018-07-23T11:15:52.193Z,49.70
2018-07-23T11:18:21.216Z,49.50
2018-07-23T11:20:50.205Z,48.60
2018-07-23T11:23:19.218Z,48.60
2018-07-23T11:25:48.267Z,49.00
2018-07-23T11:28:17.302Z,48.70
2018-07-23T11:30:46.282Z,48.40
2018-07-23T11:33:15.701Z,48.50
2018-07-23T11:35:44.696Z,48.50
2018-07-23T11:38:13.655Z,49.60
2018-07-23T11:40:42.684Z,49.10
2018-07-23T11:43:11.701Z,49.20
2018-07-23T11:45:40.710Z,49.00
2018-07-23T11:48:09.730Z,48.40
2018-07-23T11:50:38.745Z,49.50
2018-07-23T11:53:07.693Z,46.90
2018-07-23T11:58:05.462Z,47.60
2018-07-23T12:00:34.471Z,48.10
2018-07-23T12:03:03.428Z,48.30
2018-07-23T12:05:32.463Z,48.70
2018-07-23T12:08:01.423Z,48.60
2018-07-23T12:10:30.374Z,48.20
2018-07-23T12:12:59.360Z,47.50
2018-07-23T12:15:28.364Z,47.00
2018-07-23T12:17:57.314Z,47.40
2018-07-23T12:20:26.276Z,46.50
2018-07-23T12:22:55.278Z,48.20
2018-07-23T12:25:24.282Z,47.70
2018-07-23T12:27:53.312Z,46.30
2018-07-23T12:30:22.361Z,46.50
2018-07-23T12:32:51.349Z,46.40
2018-07-23T12:35:20.330Z,47.00
2018-07-23T12:37:49.373Z,48.10
2018-07-23T12:40:18.348Z,47.90
2018-07-23T12:42:47.329Z,46.60
2018-07-23T12:45:16.416Z,47.20
2018-07-23T12:47:45.492Z,46.40
2018-07-23T12:50:14.465Z,47.30
2018-07-23T12:52:43.534Z,46.60
2018-07-23T12:55:12.499Z,46.50
2018-07-23T12:57:41.493Z,44.10
2018-07-23T13:00:10.521Z,45.10
2018-07-23T13:02:39.549Z,45.40
2018-07-23T13:05:08.804Z,45.80
2018-07-23T13:07:37.800Z,46.60
2018-07-23T13:12:35.492Z,43.90
2018-07-23T13:15:05.113Z,44.20
2018-07-23T13:17:34.225Z,43.70
2018-07-23T13:20:03.277Z,45.10
2018-07-23T13:22:32.286Z,45.20
2018-07-23T13:25:01.383Z,45.10
2018-07-23T13:27:30.478Z,46.20
2018-07-23T13:29:59.470Z,45.90
2018-07-23T13:32:28.442Z,46.00
2018-07-23T13:34:57.442Z,43.90
2018-07-23T13:37:26.436Z,44.90
2018-07-23T13:39:55.450Z,44.80
2018-07-23T13:42:24.402Z,45.30
2018-07-23T13:44:53.390Z,45.00
2018-07-23T13:47:22.424Z,45.40
2018-07-23T13:49:51.402Z,44.70
2018-07-23T13:52:20.410Z,43.60
2018-07-23T13:54:49.652Z,44.00
2018-07-23T13:57:18.805Z,44.20
2018-07-23T13:59:47.783Z,43.70
2018-07-23T14:02:16.739Z,42.80
2018-07-23T14:04:46.657Z,43.30
2018-07-23T14:07:15.674Z,42.20
2018-07-23T14:09:44.645Z,43.50
2018-07-23T14:12:13.782Z,42.60
2018-07-23T14:14:42.942Z,41.90
2018-07-23T14:17:12.386Z,43.10
2018-07-23T14:19:41.377Z,43.50
2018-07-23T14:22:10.357Z,44.30
2018-07-23T14:24:39.376Z,42.00
2018-07-23T14:27:08.378Z,41.40
2018-07-23T14:29:37.353Z,42.70
2018-07-23T14:32:06.411Z,42.90
2018-07-23T14:34:35.429Z,43.40
2018-07-23T14:37:04.429Z,42.10
2018-07-23T14:39:33.439Z,43.30
2018-07-23T14:42:02.634Z,43.10
2018-07-23T14:44:32.551Z,43.90
2018-07-23T14:47:01.517Z,43.50
2018-07-23T14:51:59.257Z,41.90
2018-07-23T14:54:28.217Z,41.90
2018-07-23T14:56:57.209Z,42.80
2018-07-23T14:59:26.193Z,42.10
2018-07-23T15:01:55.221Z,42.70
2018-07-23T15:04:24.267Z,43.20
2018-07-23T15:06:53.233Z,43.30
2018-07-23T15:09:22.245Z,43.70
2018-07-23T15:11:51.271Z,44.20
2018-07-23T15:14:20.376Z,43.10
2018-07-23T15:16:49.329Z,44.20
2018-07-23T15:19:18.365Z,43.70
2018-07-23T15:21:48.057Z,43.50
2018-07-23T15:24:17.085Z,43.50
2018-07-23T15:26:46.505Z,42.90
2018-07-23T15:29:15.485Z,43.40
2018-07-23T15:31:44.513Z,43.00
2018-07-23T15:34:13.536Z,43.00
2018-07-23T15:36:42.513Z,42.00
2018-07-23T15:39:11.703Z,41.90
2018-07-23T15:44:09.459Z,42.90
2018-07-23T15:46:38.465Z,43.50
2018-07-23T15:49:07.571Z,44.00
2018-07-23T15:51:36.553Z,43.40
2018-07-23T15:54:06.005Z,43.80
2018-07-23T15:56:35.162Z,43.70
2018-07-23T15:59:04.154Z,43.20
2018-07-23T16:01:33.137Z,43.30
2018-07-23T16:04:02.179Z,42.00
2018-07-23T16:06:31.229Z,41.20
2018-07-23T16:09:00.169Z,40.80
2018-07-23T16:11:29.216Z,41.50
2018-07-23T16:13:58.272Z,42.30
2018-07-23T16:16:27.299Z,41.80
2018-07-23T16:18:56.405Z,42.30
2018-07-23T16:21:25.423Z,42.40
2018-07-23T16:23:54.383Z,42.40
2018-07-23T16:26:23.360Z,41.80
2018-07-23T16:28:52.378Z,42.50
2018-07-23T16:31:21.372Z,42.10
2018-07-23T16:36:19.013Z,42.60
2018-07-23T16:38:47.970Z,42.50
2018-07-23T16:41:16.964Z,42.50
2018-07-23T16:43:46.031Z,41.40
2018-07-23T16:46:15.129Z,42.80
2018-07-23T16:48:44.085Z,42.00
2018-07-23T16:51:13.047Z,42.00
2018-07-23T16:53:42.078Z,42.50
2018-07-23T16:56:11.041Z,42.50
2018-07-23T16:58:39.993Z,42.70
2018-07-23T17:01:08.957Z,42.20
2018-07-23T17:03:37.984Z,42.90
2018-07-23T17:06:06.945Z,43.10
2018-07-23T17:08:35.938Z,43.60
2018-07-23T17:11:05.012Z,43.90
2018-07-23T17:13:33.989Z,44.00
2018-07-23T17:16:02.973Z,43.60
2018-07-23T17:18:31.997Z,43.70
2018-07-23T17:21:00.970Z,43.60
2018-07-23T17:23:30.010Z,43.50
2018-07-23T17:25:59.050Z,42.60
2018-07-23T17:28:28.036Z,42.10
2018-07-23T17:30:57.043Z,42.60
2018-07-23T17:33:26.067Z,42.70
2018-07-23T17:35:55.173Z,42.20
2018-07-23T17:38:24.297Z,40.80
2018-07-23T17:40:53.341Z,41.60
2018-07-23T17:43:22.475Z,42.10
2018-07-23T17:45:51.515Z,42.20
2018-07-23T17:48:20.677Z,43.20
2018-07-23T17:50:49.679Z,42.50
2018-07-23T17:53:18.797Z,40.70
2018-07-23T17:55:48.311Z,42.40
2018-07-23T17:58:17.344Z,41.20
2018-07-23T18:00:46.321Z,40.90
2018-07-23T18:03:15.345Z,41.10
2018-07-23T18:05:44.416Z,41.60
2018-07-23T18:08:13.440Z,42.20
2018-07-23T18:10:42.458Z,42.10
2018-07-23T18:13:11.429Z,41.30
2018-07-23T18:15:40.455Z,41.30
2018-07-23T18:18:09.477Z,41.60
2018-07-23T18:20:38.480Z,41.80
2018-07-23T18:23:07.746Z,41.70
2018-07-23T18:25:36.773Z,41.70
2018-07-23T18:28:05.873Z,41.80
2018-07-23T18:30:34.849Z,41.50
2018-07-23T18:33:03.880Z,41.60
2018-07-23T18:35:32.905Z,42.10
2018-07-23T18:38:02.028Z,42.10
2018-07-23T18:40:30.945Z,42.00
2018-07-23T18:42:59.948Z,41.90
2018-07-23T18:45:29.021Z,41.80
2018-07-23T18:47:58.112Z,41.70
2018-07-23T18:50:27.101Z,41.90
2018-07-23T18:52:56.062Z,41.90
2018-07-23T18:55:25.084Z,41.40
2018-07-23T18:57:54.072Z,41.70
2018-07-23T19:00:23.162Z,42.00
2018-07-23T19:02:52.193Z,42.10
2018-07-23T19:05:21.194Z,42.10
2018-07-23T19:07:50.176Z,42.10
2018-07-23T19:10:19.184Z,42.20
2018-07-23T19:12:48.160Z,42.30
2018-07-23T19:15:17.302Z,42.50
2018-07-23T19:17:46.463Z,42.60
2018-07-23T19:20:15.530Z,42.70
2018-07-23T19:22:44.496Z,42.90
2018-07-23T19:25:13.630Z,42.80
2018-07-23T19:27:42.686Z,42.80
2018-07-23T19:30:11.692Z,42.90
2018-07-23T19:32:40.717Z,43.00
2018-07-23T19:35:09.991Z,43.80
2018-07-23T19:37:39.020Z,43.50
2018-07-23T19:40:08.028Z,43.30
2018-07-23T19:42:37.133Z,43.30
2018-07-23T19:45:06.381Z,43.60
2018-07-23T19:47:35.492Z,43.70
2018-07-23T19:50:04.953Z,43.70
2018-07-23T19:52:33.940Z,44.00
2018-07-23T19:55:02.948Z,44.10
2018-07-23T19:57:32.745Z,44.40
2018-07-23T20:00:01.788Z,44.40
2018-07-23T20:02:30.812Z,44.50
2018-07-23T20:04:59.870Z,44.80
2018-07-23T20:07:28.978Z,44.90
2018-07-23T20:09:58.049Z,45.00
2018-07-23T20:12:27.008Z,45.30
2018-07-23T20:14:56.074Z,45.20
2018-07-23T20:17:25.055Z,45.20
2018-07-23T20:19:54.048Z,45.60
2018-07-23T20:22:23.702Z,45.40
2018-07-23T20:24:52.731Z,45.30
2018-07-23T20:27:21.818Z,45.60
2018-07-23T20:29:50.812Z,45.90
2018-07-23T20:32:19.837Z,45.50
2018-07-23T20:34:48.877Z,45.60
2018-07-23T20:37:17.996Z,45.70
2018-07-23T20:39:47.103Z,46.20
2018-07-23T20:42:16.114Z,46.20
2018-07-23T20:44:45.170Z,46.40
2018-07-23T20:47:14.265Z,47.60
2018-07-23T20:49:43.253Z,46.70
2018-07-23T20:52:12.205Z,47.10
2018-07-23T20:54:41.224Z,47.10
2018-07-23T20:59:37.877Z,47.10
2018-07-23T21:02:07.007Z,47.40
2018-07-23T21:04:35.969Z,47.80
2018-07-23T21:07:05.496Z,47.90
2018-07-23T21:09:34.450Z,48.40
2018-07-23T21:12:03.493Z,48.70
2018-07-23T21:14:32.531Z,48.60
2018-07-23T21:17:01.533Z,49.00
2018-07-23T21:19:30.509Z,49.40
2018-07-23T21:21:59.653Z,49.20
2018-07-23T21:24:28.657Z,49.20
2018-07-23T21:26:57.689Z,49.20
2018-07-23T21:29:26.707Z,49.80
2018-07-23T21:31:55.793Z,49.90
2018-07-23T21:34:24.767Z,50.10
2018-07-23T21:36:53.789Z,50.20
2018-07-23T21:39:22.781Z,49.00
2018-07-23T21:41:51.752Z,49.20
2018-07-23T21:44:20.813Z,49.30
2018-07-23T21:46:49.829Z,49.50
2018-07-23T21:49:18.811Z,50.00
2018-07-23T21:51:47.813Z,50.40
2018-07-23T21:54:16.841Z,50.90
2018-07-23T21:56:45.973Z,50.40
2018-07-23T21:59:15.019Z,50.70
2018-07-23T22:01:44.079Z,50.70
2018-07-23T22:06:41.847Z,50.80
2018-07-23T22:09:10.861Z,51.40
2018-07-23T22:11:39.900Z,50.60
2018-07-23T22:14:09.473Z,55.50
2018-07-23T22:16:39.063Z,54.20
2018-07-23T22:19:08.177Z,56.60
2018-07-23T22:21:37.149Z,53.80
2018-07-23T22:24:06.183Z,54.20
2018-07-23T22:26:40.507Z,53.10
2018-07-23T22:29:09.557Z,53.20
2018-07-23T22:31:38.635Z,52.80
2018-07-23T22:34:07.920Z,52.10
2018-07-23T22:36:36.929Z,53.40
2018-07-23T22:39:08.396Z,53.60
2018-07-23T22:41:37.914Z,53.40
2018-07-23T22:44:06.923Z,52.50
2018-07-23T22:46:36.072Z,52.80
2018-07-23T22:49:05.220Z,52.70
2018-07-23T22:51:34.208Z,53.60
2018-07-23T22:54:03.278Z,54.00
2018-07-23T22:56:32.404Z,54.10
2018-07-23T22:59:01.394Z,53.80
2018-07-23T23:01:30.358Z,53.50
2018-07-23T23:03:59.366Z,53.30
2018-07-23T23:06:28.350Z,53.10
2018-07-23T23:08:57.358Z,53.80
2018-07-23T23:11:26.361Z,54.30
2018-07-23T23:13:55.358Z,54.40
2018-07-23T23:16:24.364Z,55.00
2018-07-23T23:18:53.339Z,55.30
2018-07-23T23:21:22.372Z,55.00
2018-07-23T23:23:51.358Z,55.50
2018-07-23T23:26:20.330Z,55.50
2018-07-23T23:28:49.356Z,55.50
2018-07-23T23:31:18.320Z,55.60
2018-07-23T23:33:47.312Z,55.50
2018-07-23T23:36:16.296Z,55.50
2018-07-23T23:38:45.868Z,55.60
2018-07-23T23:41:14.870Z,55.60
2018-07-23T23:43:43.856Z,55.90
2018-07-23T23:46:12.872Z,56.00
2018-07-23T23:48:41.884Z,57.00
2018-07-23T23:51:10.868Z,56.70
2018-07-23T23:53:39.847Z,56.80
2018-07-23T23:56:08.840Z,56.80
2018-07-23T23:58:37.885Z,56.70
